Map

Track Data

SID SEASON NUMBER BASIN SUBBASIN NAME ISO_TIME NATURE LAT LON WMO_WIND WMO_PRES WMO_AGENCY TRACK_TYPE DIST2LAND LANDFALL IFLAG USA_AGENCY USA_ATCF_ID USA_LAT USA_LON USA_RECORD USA_STATUS USA_WIND USA_PRES USA_SSHS USA_R34_NE USA_R34_SE USA_R34_SW USA_R34_NW USA_R50_NE USA_R50_SE USA_R50_SW USA_R50_NW USA_R64_NE USA_R64_SE USA_R64_SW USA_R64_NW USA_POCI USA_ROCI USA_RMW USA_EYE TOKYO_LAT TOKYO_LON TOKYO_GRADE TOKYO_WIND TOKYO_PRES TOKYO_R50_DIR TOKYO_R50_LONG TOKYO_R50_SHORT TOKYO_R30_DIR TOKYO_R30_LONG TOKYO_R30_SHORT TOKYO_LAND CMA_LAT CMA_LON CMA_CAT CMA_WIND CMA_PRES HKO_LAT HKO_LON HKO_CAT HKO_WIND HKO_PRES NEWDELHI_LAT NEWDELHI_LON NEWDELHI_GRADE NEWDELHI_WIND NEWDELHI_PRES NEWDELHI_CI NEWDELHI_DP NEWDELHI_POCI REUNION_LAT REUNION_LON REUNION_TYPE REUNION_WIND REUNION_PRES REUNION_TNUM REUNION_CI REUNION_RMW REUNION_R34_NE REUNION_R34_SE REUNION_R34_SW REUNION_R34_NW REUNION_R50_NE REUNION_R50_SE REUNION_R50_SW REUNION_R50_NW REUNION_R64_NE REUNION_R64_SE REUNION_R64_SW REUNION_R64_NW BOM_LAT BOM_LON BOM_TYPE BOM_WIND BOM_PRES BOM_TNUM BOM_CI BOM_RMW BOM_R34_NE BOM_R34_SE BOM_R34_SW BOM_R34_NW BOM_R50_NE BOM_R50_SE BOM_R50_SW BOM_R50_NW BOM_R64_NE BOM_R64_SE BOM_R64_SW BOM_R64_NW BOM_ROCI BOM_POCI BOM_EYE BOM_POS_METHOD BOM_PRES_METHOD NADI_LAT NADI_LON NADI_CAT NADI_WIND NADI_PRES WELLINGTON_LAT WELLINGTON_LON WELLINGTON_WIND WELLINGTON_PRES DS824_LAT DS824_LON DS824_STAGE DS824_WIND DS824_PRES TD9636_LAT TD9636_LON TD9636_STAGE TD9636_WIND TD9636_PRES TD9635_LAT TD9635_LON TD9635_WIND TD9635_PRES TD9635_ROCI NEUMANN_LAT NEUMANN_LON NEUMANN_CLASS NEUMANN_WIND NEUMANN_PRES MLC_LAT MLC_LON MLC_CLASS MLC_WIND MLC_PRES USA_GUST BOM_GUST BOM_GUST_PER REUNION_GUST REUNION_GUST_PER USA_SEAHGT USA_SEARAD_NE USA_SEARAD_SE USA_SEARAD_SW USA_SEARAD_NW STORM_SPEED STORM_DIR
1992233N07173 1992 71 WP MM NOT_NAMED 1992-08-20 06:00:00 NR 6.60000 173.300 spur-merge 2179 2144 O_____________ jtwc_wp WP151992 6.60000 173.300 10 -1 10 276
1992233N07173 1992 71 WP MM NOT_NAMED 1992-08-20 09:00:00 NR 6.65010 172.800 spur-merge 2153 2119 P_____________ WP151992 6.65010 172.800 10 -1 10 276
1992233N07173 1992 71 WP MM NOT_NAMED 1992-08-20 12:00:00 NR 6.70000 172.300 spur-merge 2119 2086 O_____________ jtwc_wp WP151992 6.70000 172.300 10 -1 10 276
1992233N07173 1992 71 WP MM NOT_NAMED 1992-08-20 15:00:00 NR 6.74995 171.800 spur-merge 2086 2063 P_____________ WP151992 6.74995 171.800 10 -1 10 276
1992233N07173 1992 71 WP MM NOT_NAMED 1992-08-20 18:00:00 NR 6.80000 171.300 spur-merge 2063 2032 O_____________ jtwc_wp WP151992 6.80000 171.300 10 -1 10 276
1992233N07173 1992 71 WP MM NOT_NAMED 1992-08-20 21:00:00 NR 6.84997 170.792 spur-merge 2032 2012 P_____________ WP151992 6.84997 170.792 12 -1 10 276
1992233N07173 1992 71 WP MM NOT_NAMED 1992-08-21 00:00:00 NR 6.90000 170.300 spur-merge 2012 1989 O_____________ jtwc_wp WP151992 6.90000 170.300 15 -1 10 277
1992233N07173 1992 71 WP MM NOT_NAMED 1992-08-21 03:00:00 NR 6.95744 169.843 spur-merge 1993 1971 P_____________ WP151992 6.95744 169.843 15 -1 9 276
1992233N07173 1992 71 WP MM NOT_NAMED 1992-08-21 06:00:00 NR 7.00000 169.400 spur-merge 1971 1950 O_____________ jtwc_wp WP151992 7.00000 169.400 15 -1 9 273
1992233N07173 1992 71 WP MM NOT_NAMED 1992-08-21 09:00:00 NR 7.00746 168.950 spur-merge 1945 1925 P_____________ WP151992 7.00746 168.950 15 -1 9 270
1992233N07173 1992 71 WP MM NOT_NAMED 1992-08-21 12:00:00 NR 7.00000 168.500 spur-merge 1925 1906 O_____________ jtwc_wp WP151992 7.00000 168.500 15 -1 9 270
1992233N07173 1992 71 WP MM NOT_NAMED 1992-08-21 15:00:00 NR 6.99994 168.058 spur-merge 1906 1883 P_____________ WP151992 6.99994 168.058 15 -1 9 270
1992233N07173 1992 71 WP MM NOT_NAMED 1992-08-21 18:00:00 NR 7.00000 167.600 spur-merge 1883 1861 O_____________ jtwc_wp WP151992 7.00000 167.600 15 -1 9 270
1992233N07173 1992 71 WP MM NOT_NAMED 1992-08-21 21:00:00 NR 6.99247 167.107 spur-merge 1861 1841 P_____________ WP151992 6.99247 167.107 15 -1 10 270
1992233N07173 1992 71 WP MM NOT_NAMED 1992-08-22 00:00:00 NR 7.00000 166.600 spur-merge 1841 1823 O_____________ jtwc_wp WP151992 7.00000 166.600 15 -1 10 273
1992233N07173 1992 71 WP MM NOT_NAMED 1992-08-22 03:00:00 NR 7.04245 166.100 spur-merge 1823 1816 P_____________ WP151992 7.04245 166.100 15 -1 10 276
1992233N07173 1992 71 WP MM NOT_NAMED 1992-08-22 06:00:00 NR 7.10000 165.600 spur-merge 1816 1798 O_____________ jtwc_wp WP151992 7.10000 165.600 15 -1 10 277
1992233N07173 1992 71 WP MM NOT_NAMED 1992-08-22 09:00:00 NR 7.15742 165.108 spur-merge 1804 1780 P_____________ WP151992 7.15742 165.108 15 -1 10 276
1992233N07173 1992 71 WP MM NOT_NAMED 1992-08-22 12:00:00 NR 7.20000 164.600 spur-merge 1780 1748 O_____________ jtwc_wp WP151992 7.20000 164.600 15 -1 10 272
1992233N07173 1992 71 WP MM NOT_NAMED 1992-08-22 15:00:00 NR 7.19996 164.057 spur-merge 1748 1711 P_____________ WP151992 7.19996 164.057 17 -1 11 270
1992233N07173 1992 71 WP MM NOT_NAMED 1992-08-22 18:00:00 NR 7.20000 163.500 spur-merge 1711 1681 O_____________ jtwc_wp WP151992 7.20000 163.500 20 -1 11 272
1992233N07173 1992 71 WP MM NOT_NAMED 1992-08-22 21:00:00 NR 7.24241 162.958 spur-merge 1681 1646 P_____________ WP151992 7.24241 162.958 20 -1 11 275
1992233N07173 1992 71 WP MM NOT_NAMED 1992-08-23 00:00:00 NR 7.30000 162.400 spur-merge 1646 1604 O_____________ jtwc_wp WP151992 7.30000 162.400 20 -1 11 275
1992233N07173 1992 71 WP MM NOT_NAMED 1992-08-23 03:00:00 NR 7.34995 161.807 spur-merge 1604 1572 P_____________ WP151992 7.34995 161.807 20 -1 12 275
1992233N07173 1992 71 WP MM NOT_NAMED 1992-08-23 06:00:00 NR 7.40000 161.200 spur-merge 1572 1533 O_____________ jtwc_wp WP151992 7.40000 161.200 20 -1 12 274
1992233N07173 1992 71 WP MM NOT_NAMED 1992-08-23 09:00:00 NR 7.44242 160.600 spur-merge 1533 1501 P_____________ WP151992 7.44242 160.600 20 -1 12 275
1992233N07173 1992 71 WP MM NOT_NAMED 1992-08-23 12:00:00 NR 7.50000 160.000 spur-merge 1501 1472 O_____________ jtwc_wp WP151992 7.50000 160.000 20 -1 12 277
1992233N07173 1992 71 WP MM NOT_NAMED 1992-08-23 15:00:00 NR 7.58492 159.400 spur-merge 1472 1445 P_____________ WP151992 7.58492 159.400 22 -1 12 280
1992233N07173 1992 71 WP MM NOT_NAMED 1992-08-23 18:00:00 NR 7.70000 158.800 spur-merge 1445 1420 O_____________ jtwc_wp WP151992 7.70000 158.800 25 -1 12 282
1992233N07173 1992 71 WP MM NOT_NAMED 1992-08-23 21:00:00 NR 7.84245 158.193 spur-merge 1420 1406 P_____________ WP151992 7.84245 158.193 25 -1 12 284
1992233N07173 1992 71 WP MM NOT_NAMED 1992-08-24 00:00:00 NR 8.00000 157.600 spur-merge 1406 1390 O_____________ jtwc_wp WP151992 8.00000 157.600 25 -1 12 285
1992233N07173 1992 71 WP MM NOT_NAMED 1992-08-24 03:00:00 NR 8.14990 157.042 spur-merge 1385 1380 P_____________ WP151992 8.15262 157.040 25 -1 11 285
1992233N07173 1992 71 WP MM NOT_NAMED 1992-08-24 06:00:00 NR 8.30000 156.500 spur-merge 1380 1366 O_____________ jtwc_wp WP151992 8.30000 156.500 25 -1 11 286
1992233N07173 1992 71 WP MM NOT_NAMED 1992-08-24 09:00:00 NR 8.44992 155.950 spur-merge 1362 ______________ WP151992 -1 11 285

Digital Typhoon Data and Search

About IBTrACS Database

This database is a web-friendly format of International Best Track Archive for Climate Stewardship (IBTrACS), a global best track data archive curated by NOAA dating back to 1842.

Updated: 2021-12-03